Questo sito fa uso di cookie per migliorare l’esperienza di navigazione degli utenti e per raccogliere informazioni sull’utilizzo del sito stesso. Proseguendo nella navigazione si accetta l’uso dei cookie; in caso contrario è possibile abbandonare il sito.

[source: ADDS]
METAR
LIPA 191255Z 30002KT 9999 FEW020 BKN030 19/14 Q1016 RMK OVC VIS MIN 9000N WIND THR05 /////KT WIND THR23 /////KT A3001 BLU =
TAF LIPA 191100Z 1912/1921 03005KT 8000 SCT025 BKN040 TEMPO 1915/1921 4000 RA BR LIPB 191250Z 29003KT 9999 FEW030 BKN050 OVC060 16/15 Q1015 RMK MON GEN INC =
TAF LIPB 191100Z 1912/2012 VRB05KT 8000 SCT040 TEMPO 1912/1915 RA LIPC 191255Z 09006KT 9999 FEW050 SCT060 23/14 Q1015 RMK BKN VIS MIN 9999 WIND THR11/////KT WIND THR29 10008KT BLU =
TAF LIPC 191100Z 1912/1921 16005KT 9999 FEW060 LIPE 191320Z 19009KT CAVOK 24/13 Q1014 =
TAF LIPE 191100Z 1912/2012 22010KT 9999 FEW050 BECMG 1916/1918 VRB05KT BECMG 2008/2010 09010KT LIPF 191255Z /////KT 9999 BKN070 23/15 Q1015 =
LIPH 191320Z 01004KT 330V040 9999 SCT030 20/15 Q1016 =
TAF LIPH 191100Z 1912/2012 VRB05KT 8000 SCT020 BECMG 1918/1920 3000 BR BECMG 1922/1924 0200 FG BKN001 BECMG 2007/2009 3000 BR SCT020 LIPL 191255Z 07011KT 6000 SCT030 SCT060 18/14 Q1015 RMK BKN VIS MIN 6000 WIND THR31 06012KT WIND THR13 08012KT WHT =
TAF LIPL 191100Z 1912/1921 09008KT 6000 SCT030 BKN060 TEMPO 1912/1918 3000 RA BR LIPO 191250Z 06009KT 9999 BKN050 18/15 Q1015 =
TAF LIPO 191100Z 1912/2012 12007KT 5000 RA BR SCT015 BKN030 LIPQ 191320Z 21009KT 9999 SCT020 21/18 Q1016 =
TAF LIPQ 191100Z 1912/2012 VRB05KT 9999 FEW030 TEMPO 1912/1918 RA TEMPO 1922/2006 3000 BR LIPR 191320Z 22006KT 9999 SCT050 25/11 Q1015 =
TAF LIPR 191100Z 1912/1921 15010KT CAVOK BECMG 1917/1919 VRB05KT LIPS 191255Z /////KT 7000 BKN070 20/19 Q1016 RMK BKN VIS MIN 7000 WIND THR26 35003KT WIND THR08 02003KT WHT =
TAF LIPS 191100Z 1912/1921 05005KT 4000 BR SCT025 BKN070 TEMPO 1912/1918 7000 NSW LIPX 191320Z 03005KT 010V070 9999 SCT050 BKN070 18/15 Q1016 =
TAF LIPX 191100Z 1912/1921 09007KT 5000 BR SCT025 BKN050 TEMPO 1912/1921 RA LIPY 191250Z VRB05KT CAVOK 24/15 Q1016 =
TAF LIPY 191100Z 1912/2012 15010KT 9999 FEW040 BECMG 1916/1918 VRB05KT BECMG 2008/2010 15010KT LIPZ 191320Z 13004KT 9999 BKN040 20/16 Q1016 NOSIG =
TAF LIPZ 191100Z 1912/2018 15010KT 8000 SCT040 BECMG 1916/1918 VRB05KT BECMG 1918/1920 3000 BR BECMG 1922/1924 0200 FG BKN001 BECMG 1906/1908 3000 BR SCT020 BECMG 1909/1911 15010KT 6000 LIVC 191255Z 10007KT 0000 FG VV/// 07/07 Q1020 RMK MON INVIS VAL INVIS VIS MIN 0000 =
LIVD 191255Z 00000KT 9999 BKN025 12/08 Q1018 RMK BKN VIS MIN 9999 =
LIVE 191255Z 21008KT 0900 FG -RA OVC010 08/05 Q1016 RMK OVC VIS MIN 0900 =
LIVF 191255Z 22007KT 9999 FEW027 19/10 Q1018 RMK SCT MON S W CLD SCT NC VAL NIL VIS MIN 9999 =
LIVM 191255Z AUTO 11007KT //// 23/15 Q1016 =
LIVO 191255Z 28007KT 9999 BKN025 15/10 Q1016 RMK BKN VIS MIN 9999 =
LIVP 191255Z 23030KT 0000 -RA FG VV/// 04/04 Q1017 RMK MON INVIS VAL INVIS VIS MIN 0000 =
LIVR 191255Z 16011KT 0100 -RA FG OVC002 06/04 Q1018 RMK OVC MON INVIS VIS MIN 0100 =
LIVT 191255Z ///05KT 9999 SCT025 22/17 Q1016 RMK BKN SCT070 QUK 2 QUL 1 SW VIS MAR 20 KM VIS MIN 9999 =
LIMC 191320Z 13008KT 2100 RA BR BKN005 BKN015 OVC035 15/15 Q1015 NOSIG =
TAF LIMC 191100Z 1912/2018 12008KT 2500 RA BR BKN005 BKN030 LIME 191320Z 06003KT 020V090 9999 BKN050 17/14 Q1015 NOSIG =
TAF LIME 191100Z 1912/2012 13007KT 5000 RA BR SCT015 BKN030 LIMF 191320Z 07006KT 6000 BKN012 OVC040 16/14 Q1015 =
TAF LIMF 191100Z 1912/2012 05007KT 5000 BR SCT010 BKN030 TEMPO 1912/2006 RA LIMG 191250Z 00000KT 9999 BKN025 16/16 Q1014 RETSRA =
LIMH 191255Z 19024KT 0100 FZFG VV/// M02/M03 Q1019 RMK MON INVIS VAL INVIS VIS MIN 0100 =
LIMJ 191320Z 14011KT 9999 FEW022 SCT037 BKN060 21/16 Q1014 =
TAF LIMJ 191100Z 1912/2012 15020KT 9999 RA SCT015 BKN040 TEMPO 1912/1918 4000 TSRA LIMK 191255Z 01003KT 0100 FG VV/// 12/12 Q1015 RMK VAL INVIS VIS MIN 0100 =
LIMS 191255Z 07005KT 3000 BR FEW040 SCT070 19/19 Q1014 RMK BKN VIS MIN 3000 WIND THR30 03004KT YLO =
LIMU 191255Z 18023KT 9999 SCT011 SCT020 19/18 Q1014 RMK BKN BKN060 QUK 3 QUL 1 S VIS MAR 20 KM VIS MIN 9999 =
LIMV 191255Z /////KT 9999 -RA BKN007 15/14 Q1015 RMK OVC SCT080 MON CIME INC NC VAL NIL VIS MIN 9999 =
LIMY 191255Z /////KT 2000 DZ BR BKN015 SCT020 13/11 Q1014 RMK OVC VAL NEBBIA VIS MIN 2000 =
TAF
TAF LIPA 191100Z 1912/1921 03005KT 8000 SCT025 BKN040 TEMPO 1915/1921 4000 RA BR =
TAF LIPB 191100Z 1912/2012 VRB05KT 8000 SCT040 TEMPO 1912/1915 RA =
TAF LIPC 191100Z 1912/1921 16005KT 9999 FEW060 =
TAF LIPE 191100Z 1912/2012 22010KT 9999 FEW050 BECMG 1916/1918 VRB05KT BECMG 2008/2010 09010KT =
TAF LIPH 191100Z 1912/2012 VRB05KT 8000 SCT020 BECMG 1918/1920 3000 BR BECMG 1922/1924 0200 FG BKN001 BECMG 2007/2009 3000 BR SCT020 =
TAF LIPL 191100Z 1912/1921 09008KT 6000 SCT030 BKN060 TEMPO 1912/1918 3000 RA BR =
TAF LIPO 191100Z 1912/2012 12007KT 5000 RA BR SCT015 BKN030 =
TAF LIPQ 191100Z 1912/2012 VRB05KT 9999 FEW030 TEMPO 1912/1918 RA TEMPO 1922/2006 3000 BR =
TAF LIPR 191100Z 1912/1921 15010KT CAVOK BECMG 1917/1919 VRB05KT =
TAF LIPS 191100Z 1912/1921 05005KT 4000 BR SCT025 BKN070 TEMPO 1912/1918 7000 NSW =
TAF LIPX 191100Z 1912/1921 09007KT 5000 BR SCT025 BKN050 TEMPO 1912/1921 RA =
TAF LIPY 191100Z 1912/2012 15010KT 9999 FEW040 BECMG 1916/1918 VRB05KT BECMG 2008/2010 15010KT =
TAF LIPZ 191100Z 1912/2018 15010KT 8000 SCT040 BECMG 1916/1918 VRB05KT BECMG 1918/1920 3000 BR BECMG 1922/1924 0200 FG BKN001 BECMG 1906/1908 3000 BR SCT020 BECMG 1909/1911 15010KT 6000 =
TAF LIMC 191100Z 1912/2018 12008KT 2500 RA BR BKN005 BKN030 =
TAF LIME 191100Z 1912/2012 13007KT 5000 RA BR SCT015 BKN030 =
TAF LIMF 191100Z 1912/2012 05007KT 5000 BR SCT010 BKN030 TEMPO 1912/2006 RA =
TAF LIMJ 191100Z 1912/2012 15020KT 9999 RA SCT015 BKN040 TEMPO 1912/1918 4000 TSRA =
SR / SS: 05:34 / 16:20 UTC (Effemeridi Aeroporto di Padova - LIPU 2019-10-19)

Immagini e previsioni meteo non aeronautiche

 

 

Immagini dal Radar Meteorologico del sito ARPAV. Orario UTC.

 

Immagine dal sito Meteo Sat Online

 

Legenda codici ICAO del nord Italia

 

In ordine di codice   In ordine di località
LIMC
Milano / Malpensa LIMG Albenga
LIME Bergamo / Orio Al Serio LIPA Aviano
LIMF Torino / Caselle LIME Bergamo / Orio Al Serio
LIMG Albenga LIPE Bologna / Borgo Panigale
LIMH Pian Rosa LIPB Bolzano
LIMJ Genova / Sestri LIPL Brescia / Ghedi
LIMK Torino / Bric Della Croce LIPO Brescia / Montichiari
LIML Milano / Linate LIMU Capo Mele
LIMN Novara / Cameri LIPC Cervia
LIMO Monte Bisbino LIVD Dobbiaco
LIMS Piacenza LIPP Dova Area Control Center
LIMT Passo Della Cisa LIPY Falconara
LIMU Capo Mele LIPF Ferrara
LIMV Passo Dei Giovi LIPK Forli
LIMY Monte Malanotte LIVF Frontone
LIPA Aviano LIMJ Genova / Sestri
LIPB Bolzano LIML Milano / Linate
LIPC Cervia
LIMC
Milano / Malpensa
LIPD Udine / Campoformido LIMO Monte Bisbino
LIPE Bologna / Borgo Panigale LIVC Monte Cimone
LIPF Ferrara LIMY Monte Malanotte
LIPH Treviso / S. Angelo LIMN Novara / Cameri
LIPI Udine / Rivolto LIPU Padova
LIPK Forli LIVP Paganella
LIPL Brescia / Ghedi LIMV Passo Dei Giovi
LIPO Brescia / Montichiari LIMT Passo Della Cisa
LIPP Dova Area Control Center LIVR Passo Rolle
LIPQ Ronchi Dei Legionari LIMS Piacenza
LIPR Rimini LIMH Pian Rosa
LIPS Treviso / Istrana LIVM Punta Marina
LIPT Vicenza LIVE Resia Pass
LIPU Padova LIPR Rimini
LIPX Verona / Villafranca LIPQ Ronchi Dei Legionari
LIPY Falconara LIVO Tarvisio
LIPZ Venezia / Tessera LIMK Torino / Bric Della Croce
LIVC Monte Cimone LIMF Torino / Caselle
LIVD Dobbiaco LIPS Treviso / Istrana
LIVE Resia Pass LIPH Treviso / S. Angelo
LIVF Frontone LIVT
Trieste
LIVM Punta Marina LIPD Udine / Campoformido
LIVO Tarvisio LIPI Udine / Rivolto
LIVP Paganella LIPZ Venezia / Tessera
LIVR Passo Rolle LIPX Verona / Villafranca
LIVT Trieste LIPT Vicenza

 

 

 

 

 

 

 

 

 

 

 

 

 

 

 

 

 

 

 

 

 

 

 

 

 

 

 

 

 

 

 

 

 

 

 

 

 

 

 

 

 

 

 

 

 

 

 

 

 

 

 

 

 

 

 

 

 

 

 

 

L'Aeroclub di Padova si limita a riportare informazioni fornite da terze parti, e non ha quindi alcuna responsabilità sul contenuto. Per la pianificazione dei propri voli si raccomanda l'utilizzo delle fonti ufficiali.

Copyright 2011. Free joomla templates | © Aeroclub Padova - Scuola di Volo, Ditta di manutenzione, CAMO Via Sorio, 89 - 35141 Padova Tel. 049 8718599 Fax 049 8717699 info@aeroclubpadova.it